FDX625 LOWW-EGSS
Flight info
| Callsign | FDX625 |
|---|---|
| Flight time | 1h 52m |
| Altitude | 32000 |
| Route | BUWUT DCT DITIS DCT OKG DCT VELIS DCT SWALM DCT NOGRO M40 RINIS |
| Aircraft | B77L/H-SDE1E2E3FGHIJ2J3J4J5M1RWXY/LB1D1 |
Departure
| Time | 2026-05-06 14:15 |
|---|---|
| Airport | Vienna International Airport (LOWW) |
Arrival
| Time | 2026-05-06 16:07 |
|---|---|
| Airport | London Stansted Airport (EGSS) |
| Time | Latitude | Longitude | Altitude | Speed | Heading |
|---|---|---|---|---|---|
| 2026-05-06 13:27 | 48.12019 | 16.56926 | 626 ft | 0 kts | 26° |
| 2026-05-06 14:05 | 48.12006 | 16.56916 | 614 ft | 3 kts | 26° |
| 2026-05-06 14:05 | 48.11987 | 16.56895 | 614 ft | 4 kts | 75° |
| 2026-05-06 14:05 | 48.11991 | 16.56862 | 628 ft | 4 kts | 118° |
| 2026-05-06 14:05 | 48.11996 | 16.56848 | 614 ft | 1 kts | 115° |
| 2026-05-06 14:09 | 48.11993 | 16.56860 | 614 ft | 4 kts | 115° |
| 2026-05-06 14:10 | 48.11967 | 16.56938 | 626 ft | 12 kts | 116° |
| 2026-05-06 14:10 | 48.11930 | 16.57050 | 625 ft | 12 kts | 116° |
| 2026-05-06 14:10 | 48.11884 | 16.57154 | 621 ft | 12 kts | 128° |
| 2026-05-06 14:10 | 48.11840 | 16.57257 | 626 ft | 12 kts | 116° |
| 2026-05-06 14:11 | 48.11806 | 16.57372 | 625 ft | 12 kts | 100° |
| 2026-05-06 14:11 | 48.11825 | 16.57493 | 626 ft | 12 kts | 73° |
| 2026-05-06 14:11 | 48.11873 | 16.57578 | 624 ft | 10 kts | 359° |
| 2026-05-06 14:11 | 48.11934 | 16.57556 | 626 ft | 6 kts | 345° |
| 2026-05-06 14:12 | 48.11972 | 16.57551 | 616 ft | 6 kts | 10° |
| 2026-05-06 14:12 | 48.11988 | 16.57572 | 616 ft | 3 kts | 57° |
| 2026-05-06 14:12 | 48.11989 | 16.57576 | 614 ft | 0 kts | 64° |
| 2026-05-06 14:13 | 48.11991 | 16.57597 | 614 ft | 6 kts | 86° |
| 2026-05-06 14:13 | 48.11980 | 16.57678 | 626 ft | 8 kts | 104° |
| 2026-05-06 14:13 | 48.11966 | 16.57761 | 620 ft | 8 kts | 104° |
| 2026-05-06 14:13 | 48.11945 | 16.57823 | 623 ft | 7 kts | 142° |
| 2026-05-06 14:14 | 48.11918 | 16.57840 | 614 ft | 0 kts | 161° |
| 2026-05-06 14:14 | 48.11913 | 16.57842 | 614 ft | 5 kts | 161° |
| 2026-05-06 14:14 | 48.11788 | 16.57896 | 627 ft | 37 kts | 164° |
| 2026-05-06 14:14 | 48.11292 | 16.58107 | 621 ft | 110 kts | 164° |
| 2026-05-06 14:15 | 48.10344 | 16.58504 | 626 ft | 170 kts | 164° |
| 2026-05-06 14:15 | 48.09189 | 16.58996 | 1217 ft | 167 kts | 164° |
| 2026-05-06 14:15 | 48.08078 | 16.59463 | 1926 ft | 170 kts | 165° |
| 2026-05-06 14:15 | 48.06909 | 16.59940 | 2334 ft | 180 kts | 165° |
| 2026-05-06 14:16 | 48.05736 | 16.60775 | 2469 ft | 203 kts | 137° |
| 2026-05-06 14:16 | 48.05055 | 16.62741 | 2680 ft | 232 kts | 101° |
| 2026-05-06 14:16 | 48.05272 | 16.65233 | 3025 ft | 256 kts | 66° |
| 2026-05-06 14:16 | 48.06408 | 16.67394 | 3558 ft | 270 kts | 45° |
| 2026-05-06 14:17 | 48.07838 | 16.69234 | 4235 ft | 279 kts | 41° |
| 2026-05-06 14:17 | 48.09321 | 16.71103 | 4834 ft | 281 kts | 43° |
| 2026-05-06 14:17 | 48.10844 | 16.73103 | 5040 ft | 307 kts | 43° |
| 2026-05-06 14:17 | 48.12475 | 16.75312 | 4992 ft | 320 kts | 44° |
| 2026-05-06 14:18 | 48.14192 | 16.77530 | 5004 ft | 335 kts | 35° |
| 2026-05-06 14:18 | 48.16401 | 16.78732 | 5557 ft | 342 kts | 4° |
| 2026-05-06 14:18 | 48.18700 | 16.78473 | 6772 ft | 322 kts | 348° |
| 2026-05-06 14:18 | 48.20867 | 16.77878 | 7949 ft | 311 kts | 348° |
| 2026-05-06 14:19 | 48.22970 | 16.77300 | 8915 ft | 306 kts | 348° |
| 2026-05-06 14:19 | 48.25061 | 16.76727 | 9687 ft | 306 kts | 348° |
| 2026-05-06 14:19 | 48.27174 | 16.76153 | 10334 ft | 312 kts | 347° |
| 2026-05-06 14:19 | 48.29373 | 16.75564 | 10639 ft | 332 kts | 346° |
| 2026-05-06 14:20 | 48.31732 | 16.74938 | 10833 ft | 356 kts | 347° |
| 2026-05-06 14:20 | 48.34239 | 16.74223 | 11001 ft | 374 kts | 342° |
| 2026-05-06 14:20 | 48.36673 | 16.72741 | 11322 ft | 382 kts | 328° |
| 2026-05-06 14:20 | 48.39014 | 16.70774 | 12056 ft | 388 kts | 326° |
| 2026-05-06 14:21 | 48.41368 | 16.68795 | 13053 ft | 388 kts | 326° |
| 2026-05-06 14:21 | 48.43569 | 16.66526 | 13628 ft | 384 kts | 310° |
| 2026-05-06 14:21 | 48.45100 | 16.63271 | 14285 ft | 381 kts | 291° |
| 2026-05-06 14:21 | 48.46048 | 16.59613 | 14897 ft | 383 kts | 286° |
| 2026-05-06 14:22 | 48.46961 | 16.55810 | 15593 ft | 388 kts | 286° |
| 2026-05-06 14:22 | 48.47897 | 16.51921 | 16399 ft | 391 kts | 286° |
| 2026-05-06 14:22 | 48.48821 | 16.48103 | 17172 ft | 394 kts | 286° |
| 2026-05-06 14:22 | 48.49770 | 16.44195 | 17800 ft | 400 kts | 286° |
| 2026-05-06 14:23 | 48.50738 | 16.40230 | 18427 ft | 405 kts | 286° |
| 2026-05-06 14:23 | 48.51717 | 16.36228 | 19105 ft | 409 kts | 285° |
| 2026-05-06 14:23 | 48.52706 | 16.32189 | 19793 ft | 412 kts | 285° |
| 2026-05-06 14:23 | 48.53703 | 16.28117 | 20403 ft | 416 kts | 285° |
| 2026-05-06 14:24 | 48.54710 | 16.23997 | 21001 ft | 420 kts | 285° |
| 2026-05-06 14:24 | 48.55725 | 16.19839 | 21602 ft | 424 kts | 285° |
| 2026-05-06 14:24 | 48.56745 | 16.15639 | 22175 ft | 428 kts | 285° |
| 2026-05-06 14:24 | 48.57777 | 16.11473 | 22722 ft | 433 kts | 287° |
| 2026-05-06 14:25 | 48.58897 | 16.07409 | 23250 ft | 438 kts | 289° |
| 2026-05-06 14:25 | 48.60131 | 16.03175 | 23791 ft | 442 kts | 289° |
| 2026-05-06 14:25 | 48.61387 | 15.98911 | 24333 ft | 445 kts | 289° |
| 2026-05-06 14:25 | 48.62645 | 15.94612 | 24884 ft | 448 kts | 289° |
| 2026-05-06 14:26 | 48.63896 | 15.90287 | 25437 ft | 450 kts | 289° |
| 2026-05-06 14:26 | 48.65142 | 15.85936 | 25946 ft | 453 kts | 289° |
| 2026-05-06 14:26 | 48.66392 | 15.81550 | 26458 ft | 455 kts | 288° |
| 2026-05-06 14:26 | 48.67644 | 15.77132 | 26966 ft | 458 kts | 288° |
| 2026-05-06 14:27 | 48.68898 | 15.72696 | 27452 ft | 459 kts | 288° |
| 2026-05-06 14:27 | 48.70157 | 15.68244 | 27933 ft | 462 kts | 288° |
| 2026-05-06 14:27 | 48.71422 | 15.63760 | 28363 ft | 464 kts | 288° |
| 2026-05-06 14:27 | 48.72691 | 15.59257 | 28808 ft | 466 kts | 288° |
| 2026-05-06 14:28 | 48.73960 | 15.54737 | 29228 ft | 467 kts | 288° |
| 2026-05-06 14:28 | 48.75229 | 15.50204 | 29727 ft | 466 kts | 288° |
| 2026-05-06 14:28 | 48.76474 | 15.45756 | 30279 ft | 463 kts | 288° |
| 2026-05-06 14:28 | 48.77742 | 15.41218 | 30871 ft | 459 kts | 288° |
| 2026-05-06 14:29 | 48.78963 | 15.36840 | 31481 ft | 454 kts | 288° |
| 2026-05-06 14:29 | 48.80194 | 15.32431 | 31807 ft | 453 kts | 288° |
| 2026-05-06 14:29 | 48.83614 | 15.24302 | 31763 ft | 463 kts | 302° |
| 2026-05-06 14:30 | 48.87515 | 15.16484 | 31779 ft | 464 kts | 300° |
| 2026-05-06 14:30 | 48.91261 | 15.08481 | 31780 ft | 465 kts | 298° |
| 2026-05-06 14:31 | 48.94917 | 15.00369 | 31771 ft | 465 kts | 298° |
| 2026-05-06 14:31 | 48.98556 | 14.92232 | 31767 ft | 465 kts | 298° |
| 2026-05-06 14:32 | 49.02195 | 14.84100 | 31764 ft | 465 kts | 298° |
| 2026-05-06 14:32 | 49.05834 | 14.75964 | 31770 ft | 464 kts | 298° |
| 2026-05-06 14:33 | 49.09464 | 14.67830 | 31763 ft | 464 kts | 298° |
| 2026-05-06 14:33 | 49.13091 | 14.59682 | 31757 ft | 464 kts | 298° |
| 2026-05-06 14:34 | 49.16704 | 14.51534 | 31764 ft | 463 kts | 298° |
| 2026-05-06 14:34 | 49.20289 | 14.43426 | 31770 ft | 463 kts | 297° |
| 2026-05-06 14:35 | 49.23900 | 14.35234 | 31769 ft | 464 kts | 297° |
| 2026-05-06 14:35 | 49.27501 | 14.27041 | 31771 ft | 464 kts | 297° |
| 2026-05-06 14:36 | 49.31103 | 14.18822 | 31769 ft | 465 kts | 297° |
| 2026-05-06 14:36 | 49.34702 | 14.10577 | 31761 ft | 466 kts | 297° |
| 2026-05-06 14:37 | 49.38300 | 14.02311 | 31758 ft | 466 kts | 297° |
| 2026-05-06 14:37 | 49.41892 | 13.94037 | 31769 ft | 465 kts | 297° |
| 2026-05-06 14:38 | 49.45471 | 13.85760 | 31767 ft | 465 kts | 297° |
| 2026-05-06 14:38 | 49.49033 | 13.77514 | 31770 ft | 466 kts | 297° |
| 2026-05-06 14:39 | 49.52618 | 13.69185 | 31771 ft | 467 kts | 297° |
| 2026-05-06 14:39 | 49.56201 | 13.60822 | 31772 ft | 468 kts | 297° |
| 2026-05-06 14:40 | 49.59785 | 13.52428 | 31778 ft | 468 kts | 297° |
| 2026-05-06 14:40 | 49.63358 | 13.44042 | 31776 ft | 467 kts | 297° |
| 2026-05-06 14:41 | 49.66896 | 13.35711 | 31778 ft | 466 kts | 297° |
| 2026-05-06 14:41 | 49.70446 | 13.27325 | 31775 ft | 466 kts | 297° |
| 2026-05-06 14:42 | 49.73981 | 13.18942 | 31781 ft | 466 kts | 297° |
| 2026-05-06 14:42 | 49.77517 | 13.10540 | 31777 ft | 466 kts | 296° |
| 2026-05-06 14:43 | 49.81042 | 13.02132 | 31778 ft | 466 kts | 296° |
| 2026-05-06 14:43 | 49.84566 | 12.93699 | 31779 ft | 466 kts | 296° |
| 2026-05-06 14:44 | 49.88080 | 12.85268 | 31791 ft | 466 kts | 296° |
| 2026-05-06 14:45 | 49.93337 | 12.72594 | 31793 ft | 469 kts | 296° |
| 2026-05-06 14:45 | 49.96859 | 12.64070 | 31782 ft | 469 kts | 296° |
| 2026-05-06 14:46 | 50.00376 | 12.55531 | 31783 ft | 469 kts | 296° |
| 2026-05-06 14:46 | 50.03890 | 12.46981 | 31797 ft | 469 kts | 296° |
| 2026-05-06 14:47 | 50.07026 | 12.38146 | 31781 ft | 462 kts | 287° |
| 2026-05-06 14:47 | 50.09148 | 12.28783 | 31774 ft | 458 kts | 282° |
| 2026-05-06 14:48 | 50.10812 | 12.20954 | 31778 ft | 458 kts | 282° |
| 2026-05-06 14:48 | 50.12831 | 12.11525 | 31770 ft | 459 kts | 283° |
| 2026-05-06 14:49 | 50.14859 | 12.02101 | 31783 ft | 458 kts | 283° |
| 2026-05-06 14:49 | 50.16888 | 11.92664 | 31778 ft | 459 kts | 283° |
| 2026-05-06 14:50 | 50.18908 | 11.83228 | 31776 ft | 458 kts | 283° |
| 2026-05-06 14:50 | 50.20920 | 11.73783 | 31779 ft | 458 kts | 282° |
| 2026-05-06 14:51 | 50.22906 | 11.64398 | 31779 ft | 458 kts | 282° |
| 2026-05-06 14:51 | 50.24903 | 11.54924 | 31773 ft | 459 kts | 283° |
| 2026-05-06 14:52 | 50.26891 | 11.45444 | 31757 ft | 459 kts | 283° |
| 2026-05-06 14:52 | 50.28873 | 11.35949 | 31774 ft | 459 kts | 283° |
| 2026-05-06 14:53 | 50.30853 | 11.26435 | 31768 ft | 461 kts | 283° |
| 2026-05-06 14:53 | 50.32829 | 11.16886 | 31767 ft | 462 kts | 283° |
| 2026-05-06 14:54 | 50.34799 | 11.07308 | 31768 ft | 463 kts | 283° |
| 2026-05-06 14:54 | 50.36768 | 10.97701 | 31771 ft | 464 kts | 283° |
| 2026-05-06 14:55 | 50.38734 | 10.88061 | 31764 ft | 465 kts | 283° |
| 2026-05-06 14:55 | 50.40697 | 10.78391 | 31758 ft | 466 kts | 283° |
| 2026-05-06 14:56 | 50.42653 | 10.68700 | 31758 ft | 466 kts | 283° |
| 2026-05-06 14:56 | 50.44600 | 10.59012 | 31755 ft | 466 kts | 283° |
| 2026-05-06 14:57 | 50.46540 | 10.49315 | 31757 ft | 466 kts | 283° |
| 2026-05-06 14:57 | 50.48481 | 10.39625 | 31759 ft | 465 kts | 283° |
| 2026-05-06 14:58 | 50.50428 | 10.29939 | 31761 ft | 465 kts | 283° |
| 2026-05-06 14:58 | 50.52366 | 10.20245 | 31771 ft | 464 kts | 283° |
| 2026-05-06 14:59 | 50.54289 | 10.10565 | 31769 ft | 464 kts | 283° |
| 2026-05-06 14:59 | 50.56203 | 10.00871 | 31770 ft | 465 kts | 283° |
| 2026-05-06 15:00 | 50.58101 | 9.91222 | 31759 ft | 464 kts | 283° |
| 2026-05-06 15:00 | 50.60002 | 9.81508 | 31768 ft | 465 kts | 283° |
| 2026-05-06 15:01 | 50.61897 | 9.71769 | 31770 ft | 466 kts | 283° |
| 2026-05-06 15:01 | 50.63790 | 9.62000 | 31766 ft | 466 kts | 283° |
| 2026-05-06 15:02 | 50.65674 | 9.52222 | 31776 ft | 466 kts | 283° |
| 2026-05-06 15:02 | 50.67553 | 9.42419 | 31778 ft | 468 kts | 283° |
| 2026-05-06 15:03 | 50.69428 | 9.32586 | 31777 ft | 469 kts | 283° |
| 2026-05-06 15:03 | 50.71302 | 9.22718 | 31777 ft | 469 kts | 283° |
| 2026-05-06 15:04 | 50.73446 | 9.12967 | 31791 ft | 471 kts | 287° |
| 2026-05-06 15:04 | 50.75777 | 9.03280 | 31783 ft | 472 kts | 287° |
| 2026-05-06 15:05 | 50.78105 | 8.93579 | 31786 ft | 472 kts | 287° |
| 2026-05-06 15:05 | 50.80408 | 8.83853 | 31784 ft | 472 kts | 287° |
| 2026-05-06 15:06 | 50.82692 | 8.74113 | 31784 ft | 472 kts | 287° |
| 2026-05-06 15:06 | 50.84953 | 8.64419 | 31782 ft | 472 kts | 287° |
| 2026-05-06 15:07 | 50.87220 | 8.54652 | 31783 ft | 473 kts | 287° |
| 2026-05-06 15:07 | 50.89480 | 8.44870 | 31795 ft | 473 kts | 287° |
| 2026-05-06 15:08 | 50.91738 | 8.35067 | 31783 ft | 473 kts | 287° |
| 2026-05-06 15:08 | 50.93983 | 8.25270 | 31783 ft | 473 kts | 287° |
| 2026-05-06 15:09 | 50.96215 | 8.15470 | 31794 ft | 472 kts | 287° |
| 2026-05-06 15:09 | 50.98443 | 8.05662 | 31787 ft | 472 kts | 287° |
| 2026-05-06 15:10 | 51.00660 | 7.95843 | 31794 ft | 472 kts | 287° |
| 2026-05-06 15:10 | 51.02871 | 7.86001 | 31807 ft | 473 kts | 287° |
| 2026-05-06 15:11 | 51.05079 | 7.76138 | 31802 ft | 474 kts | 287° |
| 2026-05-06 15:11 | 51.07282 | 7.66248 | 31811 ft | 474 kts | 287° |
| 2026-05-06 15:12 | 51.09479 | 7.56344 | 31817 ft | 475 kts | 287° |
| 2026-05-06 15:12 | 51.11651 | 7.46495 | 31824 ft | 475 kts | 287° |
| 2026-05-06 15:13 | 51.13834 | 7.36556 | 31828 ft | 476 kts | 287° |
| 2026-05-06 15:13 | 51.16011 | 7.26593 | 31833 ft | 476 kts | 287° |
| 2026-05-06 15:14 | 51.18182 | 7.16609 | 31836 ft | 476 kts | 287° |
| 2026-05-06 15:14 | 51.20342 | 7.06625 | 31842 ft | 477 kts | 287° |
| 2026-05-06 15:15 | 51.22500 | 6.96609 | 31848 ft | 477 kts | 287° |
| 2026-05-06 15:15 | 51.24645 | 6.86599 | 31856 ft | 477 kts | 287° |
| 2026-05-06 15:16 | 51.26785 | 6.76562 | 31861 ft | 477 kts | 287° |
| 2026-05-06 15:16 | 51.28916 | 6.66516 | 31866 ft | 477 kts | 287° |
| 2026-05-06 15:17 | 51.31040 | 6.56457 | 31864 ft | 478 kts | 287° |
| 2026-05-06 15:17 | 51.33158 | 6.46376 | 31859 ft | 479 kts | 287° |
| 2026-05-06 15:18 | 51.35273 | 6.36263 | 31867 ft | 479 kts | 287° |
| 2026-05-06 15:18 | 51.37378 | 6.26138 | 31862 ft | 480 kts | 287° |
| 2026-05-06 15:19 | 51.39465 | 6.16049 | 31862 ft | 480 kts | 287° |
| 2026-05-06 15:19 | 51.41559 | 6.05884 | 31876 ft | 480 kts | 286° |
| 2026-05-06 15:20 | 51.43639 | 5.95733 | 31886 ft | 478 kts | 286° |
| 2026-05-06 15:20 | 51.45696 | 5.85638 | 31874 ft | 475 kts | 286° |
| 2026-05-06 15:21 | 51.47734 | 5.75588 | 31873 ft | 472 kts | 286° |
| 2026-05-06 15:21 | 51.49759 | 5.65552 | 31883 ft | 471 kts | 286° |
| 2026-05-06 15:22 | 51.51764 | 5.55558 | 31889 ft | 470 kts | 286° |
| 2026-05-06 15:22 | 51.53762 | 5.45546 | 31889 ft | 470 kts | 286° |
| 2026-05-06 15:23 | 51.55753 | 5.35520 | 31891 ft | 471 kts | 286° |
| 2026-05-06 15:23 | 51.57726 | 5.25542 | 31889 ft | 472 kts | 286° |
| 2026-05-06 15:24 | 51.59706 | 5.15463 | 31894 ft | 473 kts | 286° |
| 2026-05-06 15:24 | 51.61679 | 5.05368 | 31902 ft | 473 kts | 286° |
| 2026-05-06 15:25 | 51.63643 | 4.95279 | 31906 ft | 472 kts | 286° |
| 2026-05-06 15:25 | 51.65597 | 4.85178 | 31910 ft | 472 kts | 286° |
| 2026-05-06 15:26 | 51.67541 | 4.75084 | 31907 ft | 471 kts | 285° |
| 2026-05-06 15:26 | 51.69470 | 4.65010 | 31906 ft | 470 kts | 285° |
| 2026-05-06 15:27 | 51.71388 | 4.54937 | 31899 ft | 469 kts | 285° |
| 2026-05-06 15:27 | 51.73294 | 4.44882 | 31894 ft | 467 kts | 285° |
| 2026-05-06 15:28 | 51.75173 | 4.34919 | 31881 ft | 462 kts | 285° |
| 2026-05-06 15:28 | 51.77028 | 4.25008 | 31890 ft | 461 kts | 285° |
| 2026-05-06 15:29 | 51.78874 | 4.15102 | 31889 ft | 461 kts | 285° |
| 2026-05-06 15:29 | 51.80715 | 4.05172 | 31911 ft | 467 kts | 285° |
| 2026-05-06 15:30 | 51.82577 | 3.95079 | 31898 ft | 469 kts | 285° |
| 2026-05-06 15:30 | 51.84431 | 3.84976 | 31905 ft | 468 kts | 285° |
| 2026-05-06 15:31 | 51.86274 | 3.74877 | 31907 ft | 468 kts | 285° |
| 2026-05-06 15:31 | 51.88106 | 3.64776 | 31904 ft | 467 kts | 285° |
| 2026-05-06 15:32 | 51.90831 | 3.49642 | 31921 ft | 466 kts | 285° |
| 2026-05-06 15:32 | 51.92334 | 3.41253 | 31917 ft | 466 kts | 285° |
| 2026-05-06 15:33 | 51.94132 | 3.31168 | 31927 ft | 465 kts | 285° |
| 2026-05-06 15:33 | 51.95799 | 3.21014 | 31476 ft | 472 kts | 279° |
| 2026-05-06 15:34 | 51.96166 | 3.15729 | 30937 ft | 469 kts | 272° |
| 2026-05-06 15:34 | 51.96200 | 3.10477 | 30357 ft | 464 kts | 266° |
| 2026-05-06 15:34 | 51.95891 | 3.05303 | 29809 ft | 457 kts | 262° |
| 2026-05-06 15:34 | 51.95519 | 3.00225 | 29259 ft | 452 kts | 262° |
| 2026-05-06 15:35 | 51.95154 | 2.95189 | 28713 ft | 447 kts | 262° |
| 2026-05-06 15:35 | 51.94806 | 2.90209 | 28152 ft | 442 kts | 263° |
| 2026-05-06 15:35 | 51.94468 | 2.85284 | 27627 ft | 438 kts | 263° |
| 2026-05-06 15:35 | 51.94137 | 2.80400 | 27099 ft | 434 kts | 263° |
| 2026-05-06 15:36 | 51.93809 | 2.75564 | 26578 ft | 429 kts | 263° |
| 2026-05-06 15:36 | 51.93481 | 2.70778 | 26061 ft | 425 kts | 263° |
| 2026-05-06 15:36 | 51.93154 | 2.66043 | 25555 ft | 421 kts | 263° |
| 2026-05-06 15:36 | 51.92830 | 2.61344 | 25046 ft | 418 kts | 263° |
| 2026-05-06 15:37 | 51.92511 | 2.56693 | 24542 ft | 414 kts | 263° |
| 2026-05-06 15:37 | 51.92192 | 2.52074 | 24044 ft | 411 kts | 263° |
| 2026-05-06 15:37 | 51.91878 | 2.47546 | 23558 ft | 407 kts | 263° |
| 2026-05-06 15:37 | 51.91562 | 2.43000 | 23073 ft | 404 kts | 263° |
| 2026-05-06 15:38 | 51.91246 | 2.38494 | 22592 ft | 401 kts | 263° |
| 2026-05-06 15:38 | 51.90930 | 2.34028 | 22115 ft | 398 kts | 263° |
| 2026-05-06 15:38 | 51.90666 | 2.29582 | 21676 ft | 394 kts | 266° |
| 2026-05-06 15:38 | 51.90547 | 2.25178 | 21275 ft | 389 kts | 268° |
| 2026-05-06 15:39 | 51.90480 | 2.20816 | 20876 ft | 385 kts | 268° |
| 2026-05-06 15:39 | 51.90415 | 2.16501 | 20478 ft | 381 kts | 268° |
| 2026-05-06 15:39 | 51.90336 | 2.12232 | 20088 ft | 378 kts | 268° |
| 2026-05-06 15:39 | 51.90246 | 2.07994 | 19700 ft | 375 kts | 267° |
| 2026-05-06 15:40 | 51.90148 | 2.03791 | 19309 ft | 372 kts | 267° |
| 2026-05-06 15:40 | 51.90048 | 1.99623 | 18934 ft | 369 kts | 267° |
| 2026-05-06 15:40 | 51.89945 | 1.95475 | 18552 ft | 369 kts | 267° |
| 2026-05-06 15:40 | 51.89851 | 1.91380 | 18180 ft | 367 kts | 269° |
| 2026-05-06 15:41 | 51.90202 | 1.87294 | 17810 ft | 370 kts | 289° |
| 2026-05-06 15:41 | 51.91326 | 1.83547 | 17524 ft | 370 kts | 298° |
| 2026-05-06 15:41 | 51.92578 | 1.79884 | 17190 ft | 373 kts | 297° |
| 2026-05-06 15:41 | 51.93826 | 1.76184 | 16855 ft | 374 kts | 297° |
| 2026-05-06 15:42 | 51.95062 | 1.72488 | 16521 ft | 370 kts | 297° |
| 2026-05-06 15:42 | 51.96277 | 1.68832 | 16177 ft | 366 kts | 297° |
| 2026-05-06 15:42 | 51.97470 | 1.65219 | 15862 ft | 361 kts | 297° |
| 2026-05-06 15:42 | 51.98650 | 1.61632 | 15542 ft | 358 kts | 297° |
| 2026-05-06 15:43 | 51.99817 | 1.58076 | 15229 ft | 356 kts | 297° |
| 2026-05-06 15:43 | 52.00975 | 1.54538 | 14918 ft | 354 kts | 297° |
| 2026-05-06 15:43 | 52.02125 | 1.51022 | 14605 ft | 352 kts | 297° |
| 2026-05-06 15:43 | 52.03269 | 1.47517 | 14295 ft | 351 kts | 297° |
| 2026-05-06 15:44 | 52.04407 | 1.44024 | 13982 ft | 350 kts | 297° |
| 2026-05-06 15:44 | 52.05543 | 1.40534 | 13676 ft | 349 kts | 297° |
| 2026-05-06 15:44 | 52.06673 | 1.37057 | 13377 ft | 347 kts | 297° |
| 2026-05-06 15:44 | 52.07778 | 1.33652 | 13058 ft | 331 kts | 297° |
| 2026-05-06 15:45 | 52.08825 | 1.30425 | 12741 ft | 314 kts | 297° |
| 2026-05-06 15:45 | 52.09815 | 1.27367 | 12482 ft | 300 kts | 297° |
| 2026-05-06 15:45 | 52.10777 | 1.24391 | 12224 ft | 294 kts | 297° |
| 2026-05-06 15:45 | 52.11500 | 1.21367 | 11949 ft | 286 kts | 278° |
| 2026-05-06 15:46 | 52.11459 | 1.18363 | 11792 ft | 286 kts | 259° |
| 2026-05-06 15:46 | 52.10972 | 1.15212 | 11599 ft | 289 kts | 256° |
| 2026-05-06 15:46 | 52.10436 | 1.12047 | 11394 ft | 292 kts | 256° |
| 2026-05-06 15:46 | 52.09891 | 1.08851 | 11179 ft | 294 kts | 255° |
| 2026-05-06 15:47 | 52.09342 | 1.05641 | 10969 ft | 294 kts | 255° |
| 2026-05-06 15:47 | 52.08799 | 1.02446 | 10743 ft | 291 kts | 255° |
| 2026-05-06 15:47 | 52.08264 | 0.99290 | 10531 ft | 288 kts | 256° |
| 2026-05-06 15:47 | 52.07739 | 0.96171 | 10323 ft | 285 kts | 255° |
| 2026-05-06 15:48 | 52.07219 | 0.93084 | 10117 ft | 280 kts | 256° |
| 2026-05-06 15:48 | 52.06709 | 0.90055 | 9914 ft | 276 kts | 255° |
| 2026-05-06 15:48 | 52.06204 | 0.87060 | 9729 ft | 274 kts | 255° |
| 2026-05-06 15:48 | 52.05708 | 0.84117 | 9539 ft | 273 kts | 255° |
| 2026-05-06 15:49 | 52.05206 | 0.81143 | 9351 ft | 273 kts | 255° |
| 2026-05-06 15:49 | 52.04705 | 0.78177 | 9190 ft | 270 kts | 255° |
| 2026-05-06 15:49 | 52.04215 | 0.75281 | 9065 ft | 260 kts | 255° |
| 2026-05-06 15:49 | 52.03747 | 0.72514 | 8991 ft | 252 kts | 256° |
| 2026-05-06 15:50 | 52.03445 | 0.69705 | 8979 ft | 253 kts | 264° |
| 2026-05-06 15:50 | 52.03288 | 0.66852 | 8975 ft | 253 kts | 266° |
| 2026-05-06 15:50 | 52.03150 | 0.64009 | 8976 ft | 252 kts | 266° |
| 2026-05-06 15:50 | 52.03017 | 0.61177 | 8976 ft | 251 kts | 266° |
| 2026-05-06 15:51 | 52.02886 | 0.58349 | 8975 ft | 251 kts | 266° |
| 2026-05-06 15:51 | 52.02758 | 0.55524 | 8966 ft | 250 kts | 266° |
| 2026-05-06 15:51 | 52.02631 | 0.52730 | 8768 ft | 254 kts | 266° |
| 2026-05-06 15:51 | 52.02500 | 0.49852 | 8483 ft | 255 kts | 266° |
| 2026-05-06 15:52 | 52.02369 | 0.46993 | 8229 ft | 252 kts | 266° |
| 2026-05-06 15:52 | 52.02235 | 0.44188 | 7967 ft | 247 kts | 266° |
| 2026-05-06 15:52 | 52.02097 | 0.41432 | 7733 ft | 244 kts | 266° |
| 2026-05-06 15:52 | 52.01958 | 0.38696 | 7487 ft | 243 kts | 266° |
| 2026-05-06 15:53 | 52.01820 | 0.35961 | 7225 ft | 243 kts | 266° |
| 2026-05-06 15:53 | 52.01677 | 0.33249 | 7071 ft | 239 kts | 266° |
| 2026-05-06 15:53 | 52.01533 | 0.30560 | 7052 ft | 240 kts | 266° |
| 2026-05-06 15:53 | 52.01382 | 0.27829 | 7010 ft | 245 kts | 266° |
| 2026-05-06 15:54 | 52.01113 | 0.25110 | 6979 ft | 244 kts | 248° |
| 2026-05-06 15:54 | 52.00209 | 0.22790 | 6999 ft | 246 kts | 231° |
| 2026-05-06 15:54 | 51.99112 | 0.20622 | 6996 ft | 250 kts | 231° |
| 2026-05-06 15:54 | 51.97999 | 0.18434 | 7015 ft | 252 kts | 231° |
| 2026-05-06 15:55 | 51.96894 | 0.16264 | 7032 ft | 248 kts | 231° |
| 2026-05-06 15:55 | 51.95796 | 0.14114 | 6984 ft | 246 kts | 231° |
| 2026-05-06 15:55 | 51.94712 | 0.11989 | 6986 ft | 244 kts | 231° |
| 2026-05-06 15:55 | 51.93632 | 0.09874 | 6989 ft | 243 kts | 231° |
| 2026-05-06 15:56 | 51.92554 | 0.07771 | 6984 ft | 242 kts | 231° |
| 2026-05-06 15:56 | 51.91491 | 0.05691 | 6995 ft | 244 kts | 231° |
| 2026-05-06 15:56 | 51.90405 | 0.03579 | 6994 ft | 245 kts | 231° |
| 2026-05-06 15:56 | 51.89313 | 0.01457 | 6991 ft | 245 kts | 231° |
| 2026-05-06 15:57 | 51.88224 | -0.00656 | 6988 ft | 245 kts | 231° |
| 2026-05-06 15:57 | 51.87131 | -0.02770 | 6999 ft | 245 kts | 231° |
| 2026-05-06 15:57 | 51.86032 | -0.04892 | 6994 ft | 246 kts | 231° |
| 2026-05-06 15:57 | 51.84929 | -0.07009 | 6993 ft | 246 kts | 231° |
| 2026-05-06 15:58 | 51.83827 | -0.09124 | 6999 ft | 246 kts | 231° |
| 2026-05-06 15:58 | 51.82723 | -0.11243 | 6990 ft | 246 kts | 231° |
| 2026-05-06 15:58 | 51.81619 | -0.13356 | 6875 ft | 246 kts | 231° |
| 2026-05-06 15:58 | 51.80518 | -0.15466 | 6597 ft | 244 kts | 231° |
| 2026-05-06 15:59 | 51.79435 | -0.17553 | 6254 ft | 241 kts | 231° |
| 2026-05-06 15:59 | 51.78361 | -0.19627 | 5878 ft | 240 kts | 231° |
| 2026-05-06 15:59 | 51.77198 | -0.21528 | 5399 ft | 239 kts | 213° |
| 2026-05-06 15:59 | 51.75630 | -0.22330 | 4940 ft | 239 kts | 179° |
| 2026-05-06 16:00 | 51.74055 | -0.21676 | 4568 ft | 234 kts | 147° |
| 2026-05-06 16:00 | 51.72969 | -0.19806 | 4297 ft | 228 kts | 116° |
| 2026-05-06 16:00 | 51.72351 | -0.17510 | 4081 ft | 226 kts | 111° |
| 2026-05-06 16:00 | 51.71736 | -0.15113 | 3835 ft | 230 kts | 111° |
| 2026-05-06 16:01 | 51.71186 | -0.12693 | 3564 ft | 229 kts | 99° |
| 2026-05-06 16:01 | 51.71306 | -0.10218 | 3318 ft | 223 kts | 72° |
| 2026-05-06 16:01 | 51.71793 | -0.07836 | 3167 ft | 219 kts | 71° |
| 2026-05-06 16:01 | 51.72248 | -0.05590 | 3080 ft | 211 kts | 71° |
| 2026-05-06 16:02 | 51.72695 | -0.03357 | 3047 ft | 208 kts | 71° |
| 2026-05-06 16:02 | 51.73147 | -0.01108 | 2995 ft | 208 kts | 71° |
| 2026-05-06 16:02 | 51.73720 | 0.00969 | 2984 ft | 206 kts | 52° |
| 2026-05-06 16:02 | 51.74694 | 0.02668 | 3005 ft | 207 kts | 44° |
| 2026-05-06 16:03 | 51.75697 | 0.04289 | 2979 ft | 200 kts | 41° |
| 2026-05-06 16:03 | 51.76680 | 0.05801 | 2981 ft | 189 kts | 40° |
| 2026-05-06 16:03 | 51.77631 | 0.07220 | 2983 ft | 184 kts | 39° |
| 2026-05-06 16:03 | 51.78578 | 0.08633 | 2759 ft | 187 kts | 40° |
| 2026-05-06 16:04 | 51.79528 | 0.10053 | 2508 ft | 186 kts | 40° |
| 2026-05-06 16:04 | 51.80458 | 0.11443 | 2309 ft | 177 kts | 41° |
| 2026-05-06 16:04 | 51.81360 | 0.12785 | 2038 ft | 175 kts | 40° |
| 2026-05-06 16:04 | 51.82244 | 0.14112 | 1802 ft | 171 kts | 41° |
| 2026-05-06 16:05 | 51.83088 | 0.15377 | 1575 ft | 163 kts | 41° |
| 2026-05-06 16:05 | 51.83897 | 0.16587 | 1376 ft | 154 kts | 42° |
| 2026-05-06 16:05 | 51.84673 | 0.17751 | 1185 ft | 150 kts | 42° |
| 2026-05-06 16:05 | 51.85433 | 0.18890 | 986 ft | 148 kts | 42° |
| 2026-05-06 16:06 | 51.86190 | 0.20023 | 785 ft | 148 kts | 42° |
| 2026-05-06 16:06 | 51.86942 | 0.21143 | 597 ft | 149 kts | 42° |
| 2026-05-06 16:06 | 51.87702 | 0.22282 | 401 ft | 149 kts | 42° |
| 2026-05-06 16:06 | 51.88433 | 0.23379 | 347 ft | 127 kts | 43° |
| 2026-05-06 16:07 | 51.88909 | 0.24093 | 355 ft | 60 kts | 43° |
| 2026-05-06 16:07 | 51.89079 | 0.24447 | 355 ft | 32 kts | 69° |
| 2026-05-06 16:07 | 51.89136 | 0.24679 | 354 ft | 14 kts | 68° |
| 2026-05-06 16:07 | 51.89161 | 0.24780 | 354 ft | 1 kts | 69° |
| 2026-05-06 16:08 | 51.89165 | 0.24799 | 356 ft | 2 kts | 72° |
| 2026-05-06 16:08 | 51.89168 | 0.24825 | 358 ft | 2 kts | 80° |
| 2026-05-06 16:08 | 51.89167 | 0.24853 | 357 ft | 3 kts | 99° |
| 2026-05-06 16:08 | 51.89160 | 0.24882 | 355 ft | 4 kts | 115° |
| 2026-05-06 16:09 | 51.89126 | 0.24895 | 359 ft | 10 kts | 200° |
| 2026-05-06 16:09 | 51.89064 | 0.24810 | 365 ft | 12 kts | 224° |
| 2026-05-06 16:09 | 51.89002 | 0.24716 | 364 ft | 12 kts | 223° |
| 2026-05-06 16:09 | 51.88940 | 0.24623 | 358 ft | 12 kts | 223° |
| 2026-05-06 16:10 | 51.88867 | 0.24588 | 359 ft | 12 kts | 148° |
| 2026-05-06 16:10 | 51.88798 | 0.24663 | 357 ft | 12 kts | 174° |
| 2026-05-06 16:10 | 51.88721 | 0.24593 | 363 ft | 15 kts | 222° |
| 2026-05-06 16:10 | 51.88644 | 0.24479 | 362 ft | 15 kts | 223° |
| 2026-05-06 16:11 | 51.88577 | 0.24380 | 355 ft | 9 kts | 217° |
| 2026-05-06 16:11 | 51.88521 | 0.24403 | 360 ft | 9 kts | 138° |
| 2026-05-06 16:11 | 51.88477 | 0.24477 | 356 ft | 9 kts | 134° |
| 2026-05-06 16:11 | 51.88447 | 0.24546 | 350 ft | 5 kts | 89° |
| 2026-05-06 16:12 | 51.88471 | 0.24594 | 360 ft | 6 kts | 45° |
| 2026-05-06 16:12 | 51.88499 | 0.24636 | 351 ft | 4 kts | 43° |
| 2026-05-06 16:12 | 51.88506 | 0.24646 | 351 ft | 0 kts | 43° |